Warren, IN

8:18 PM EDT on August 30, 2016 (GMT -0400)
| | Change Station
Active Advisory: Areal Flood Advisory

Elev -9999 ft 0.00 °N, 0.00 °E | Updated

Cloudy
Cloudy
69 °F
Feels Like 69 °F
N
2
Wind Variable Wind from WNW
Gusts mph

Today
High -- | Low -- °F
--% Chance of Precip.
Yesterday
High -- | Low -- °F
Precip. -- in
Pressure 30.08 in
Visibility 0.8 miles
Clouds Scattered Clouds 1700 ft
Mostly Cloudy 2700 ft
Overcast 3300 ft
Dew Point 69 °F
Humidity 100%
Rainfall --
Snow Depth Not available.
7:07 AM 8:16 PM
Waning Crescent, 2% visible
METAR KMZZ 302355Z AUTO 00000KT 3/4SM +RA SCT017 BKN027 OVC033 21/20 A3008 RMK AO2 T02100204 10322 20105
Pressure 30.08 in
Visibility 0.8 miles
Clouds Scattered Clouds 1700 ft
Mostly Cloudy 2700 ft
Overcast 3300 ft
Dew Point 69 °F
Humidity 100%
Rainfall --
Snow Depth Not available.
7:07 AM 8:16 PM
Waning Crescent, 2% visible
METAR KMZZ 302355Z AUTO 00000KT 3/4SM +RA SCT017 BKN027 OVC033 21/20 A3008 RMK AO2 T02100204 10322 20105

10-Day Weather Forecast

Almanac

Astronomy

Aug. 30, 2016 Rise Set
Actual Time
Civil Twilight
Nautical Twilight
Astronomical Twilight
Moon
Length of Visible Light
Length of Day
Tomorrow will be .
, % of the Moon is Illuminated

Today's Extremes

State Highs State Lows

Community

WunderPhotos

Upload Photos

1,935,960 photos uploaded!

WunderBlog® & News

Nearby

Air Quality

  Air Quality AQ Index Pollutant
Not available.

Snow Depth

Station Depth Elevation

Earthquake Activity

City Distance Mag. Time & Date
Minimum magnitude displayed is 2.5.

Coastal Water Temperatures

Place Temperature

Stations

Nearby Weather Stations

Station Location Temp. Windchill Dew Point Humidity Wind Precip. Elev Updated Type
                   

Watches & Warnings

Areal Flood Advisory
Issued: 7:12 PM EDT Aug. 30, 2016 – National Weather Service

The National Weather Service in northern Indiana has issued a

* Flood Advisory for...
southeastern Huntington County in northeastern Indiana...
southwestern Adams County in northeastern Indiana...
southern Wells County in northeastern Indiana...

* until 1015 PM EDT

* at 709 PM EDT... Doppler radar indicated heavy rain due to
thunderstorms. This will cause minor flooding in the advisory
area. An observer reported 3.2 inches of rain over southern
Wells County. Expect local flooding of some roadways.

* Some locations that will experience flooding include...
Bluffton... Berne... Geneva... Monroe... Warren... Nottingham...
Poneto... Vera Cruz... Linn Grove... Mount Zion... domestic...
Wellsburg... Liberty Center... Travisville... Plum Tree... Dillman...
Keystone... Reiffsburg... Rockford and Buckeye.

Lat... Lon 4077 8490 4057 8489 4058 8543 4077 8544


Skip